Terminal Aerodrome Forecast
Issued by NWS Sterling, VA

Current Version | Previous Version | Graphics & Text | Print | Product List | Glossary On
Versions: 1 2 3 4 5 6 7 8 9 10 11 12 13 14 15 16 17 18 19 20 21 22
000
FTUS41 KLWX 221100
TAFDCA
TAF
KDCA 221138Z 2212/2312 20004KT 3SM BR OVC008
     FM221500 28007KT P6SM SCT008 BKN035
     FM221900 31011G16KT P6SM BKN250
     FM230200 31007KT P6SM SCT250
     FM230800 VRB03KT P6SM FEW250=

USA.gov is the U.S. government's official web portal to all federal, state and local government web resources and services.